Time;durP1;ratioP1;P1;durP2;ratioP2;P2;SDS_P1;SDS_P2;PMS_P1;PMS_P2;Temp;Humidity;BMP_temperature;BMP_pressure;BME280_temperature;BME280_humidity;BME280_pressure;Samples;Min_cycle;Max_cycle;Signal;HPM_P1;HPM_P2
2023/11/09 00:01:27;;;;;;;6.55;2.50;;;18.70;52.70;;;;;;5055641;28;20727;-62
2023/11/09 00:03:54;;;;;;;8.25;2.72;;;18.80;52.70;;;;;;5055944;28;20226;-62
2023/11/09 00:06:22;;;;;;;10.27;2.47;;;18.70;52.60;;;;;;5056174;28;20266;-62
2023/11/09 00:08:49;;;;;;;9.25;2.78;;;18.70;52.70;;;;;;5055514;28;20224;-62
2023/11/09 00:11:18;;;;;;;8.25;2.53;;;18.70;52.60;;;;;;5056125;28;20595;-61
2023/11/09 00:13:45;;;;;;;12.43;2.95;;;18.70;52.60;;;;;;5055916;28;20187;-62
2023/11/09 00:16:13;;;;;;;6.30;2.50;;;18.70;52.60;;;;;;5055586;28;20573;-62
2023/11/09 00:18:40;;;;;;;7.38;2.30;;;18.70;52.60;;;;;;5055538;28;20638;-62
2023/11/09 00:21:07;;;;;;;11.75;3.00;;;18.70;52.60;;;;;;5055872;28;20302;-61
2023/11/09 00:23:34;;;;;;;9.23;2.78;;;18.70;52.60;;;;;;5055427;28;20282;-62
2023/11/09 00:26:03;;;;;;;7.95;2.58;;;18.70;52.60;;;;;;5055461;28;20219;-61
2023/11/09 00:28:32;;;;;;;5.50;2.47;;;18.70;52.50;;;;;;5055504;28;20196;-62
2023/11/09 00:30:58;;;;;;;12.85;2.50;;;18.70;52.50;;;;;;5055322;28;20230;-62
2023/11/09 00:33:25;;;;;;;9.52;2.90;;;18.70;52.50;;;;;;5055184;28;20561;-62
2023/11/09 00:35:54;;;;;;;10.60;3.00;;;18.70;52.50;;;;;;5055595;28;20572;-62
2023/11/09 00:38:21;;;;;;;10.38;2.50;;;18.70;52.50;;;;;;5055082;28;20237;-61
2023/11/09 00:40:48;;;;;;;9.35;3.08;;;18.70;52.50;;;;;;5055380;28;20650;-62
2023/11/09 00:43:15;;;;;;;8.40;2.40;;;18.70;52.50;;;;;;5055371;28;20199;-61
2023/11/09 00:45:44;;;;;;;7.72;2.97;;;18.70;52.50;;;;;;5054999;28;20219;-62
2023/11/09 00:48:11;;;;;;;7.75;2.28;;;18.70;52.50;;;;;;5055388;28;20195;-62
2023/11/09 00:50:37;;;;;;;4.97;1.95;;;18.60;52.30;;;;;;5055177;28;20235;-61
2023/11/09 00:53:04;;;;;;;9.82;2.47;;;18.60;52.40;;;;;;5054559;28;20810;-62
2023/11/09 00:55:31;;;;;;;5.47;2.22;;;18.60;52.30;;;;;;5055114;28;20575;-62
2023/11/09 00:57:58;;;;;;;6.35;2.53;;;18.60;52.30;;;;;;5054714;28;20571;-62
2023/11/09 01:00:27;;;;;;;6.80;2.25;;;18.60;52.30;;;;;;5054721;28;20291;-62
2023/11/09 01:02:55;;;;;;;6.28;2.30;;;18.60;52.30;;;;;;5054469;28;20195;-62
2023/11/09 01:05:22;;;;;;;7.15;2.30;;;18.60;52.30;;;;;;5054924;28;20192;-61
2023/11/09 01:07:50;;;;;;;10.25;2.42;;;18.60;52.30;;;;;;5054774;28;20196;-61
2023/11/09 01:10:18;;;;;;;7.78;2.10;;;18.60;52.90;;;;;;5054754;28;20222;-60
2023/11/09 01:12:45;;;;;;;7.18;2.63;;;18.60;52.30;;;;;;5054490;28;20196;-61
2023/11/09 01:15:12;;;;;;;6.72;2.25;;;18.60;52.20;;;;;;5054405;28;20270;-62
2023/11/09 01:17:39;;;;;;;8.60;2.40;;;18.60;52.20;;;;;;5054666;28;20594;-62
2023/11/09 01:20:09;;;;;;;9.93;3.00;;;18.60;52.20;;;;;;5054754;28;20184;-62
2023/11/09 01:22:36;;;;;;;8.43;2.30;;;18.60;52.20;;;;;;5054275;28;20188;-62
2023/11/09 01:25:03;;;;;;;8.95;2.50;;;18.60;52.90;;;;;;5054287;28;20190;-61
2023/11/09 01:27:30;;;;;;;9.65;2.30;;;18.60;52.20;;;;;;5054229;28;20650;-62
2023/11/09 01:29:57;;;;;;;7.95;2.67;;;18.50;52.10;;;;;;5054062;28;20226;-61
2023/11/09 01:32:25;;;;;;;9.45;2.60;;;18.60;52.20;;;;;;5054362;28;20215;-62
2023/11/09 01:34:52;;;;;;;6.43;2.17;;;18.50;52.10;;;;;;5054425;28;20198;-62
2023/11/09 01:37:20;;;;;;;10.77;2.70;;;18.50;52.10;;;;;;5054172;28;20219;-62
2023/11/09 01:39:47;;;;;;;5.82;2.22;;;18.50;52.00;;;;;;5054332;28;20192;-62
2023/11/09 01:42:14;;;;;;;7.55;2.25;;;18.50;52.10;;;;;;5054289;28;20248;-62
2023/11/09 01:44:41;;;;;;;5.78;2.28;;;18.50;52.10;;;;;;5053614;28;20253;-61
2023/11/09 01:47:08;;;;;;;6.75;2.25;;;18.50;52.10;;;;;;5053729;28;20215;-61
2023/11/09 01:49:35;;;;;;;7.53;2.97;;;18.50;52.10;;;;;;5053876;28;20776;-62
2023/11/09 01:52:03;;;;;;;8.70;2.10;;;18.50;52.10;;;;;;5053602;28;20216;-62
2023/11/09 01:54:32;;;;;;;9.43;2.40;;;18.50;52.10;;;;;;5054102;28;20188;-62
2023/11/09 01:56:59;;;;;;;9.40;2.80;;;18.50;52.00;;;;;;5053949;28;20215;-61
2023/11/09 01:59:30;;;;;;;5.60;2.10;;;18.50;52.00;;;;;;5053622;28;20274;-61
2023/11/09 02:01:58;;;;;;;7.45;2.42;;;18.50;52.00;;;;;;5053915;28;20211;-62
2023/11/09 02:04:25;;;;;;;7.10;2.40;;;18.50;52.00;;;;;;5051712;28;20733;-62
2023/11/09 02:06:53;;;;;;;7.55;2.70;;;18.50;52.10;;;;;;5052841;28;20318;-62
2023/11/09 02:09:21;;;;;;;6.22;2.47;;;18.50;52.00;;;;;;5053357;28;20212;-62
2023/11/09 02:11:49;;;;;;;5.72;2.17;;;18.40;52.00;;;;;;5053844;28;20302;-62
2023/11/09 02:14:17;;;;;;;5.80;2.65;;;18.40;52.00;;;;;;5053345;28;20196;-61
2023/11/09 02:16:46;;;;;;;6.85;2.53;;;18.50;52.00;;;;;;5053398;28;20219;-62
2023/11/09 02:19:17;;;;;;;8.52;2.40;;;18.50;52.00;;;;;;5053200;28;20676;-61
2023/11/09 02:21:46;;;;;;;6.55;2.28;;;18.50;52.00;;;;;;5053093;28;20216;-61
2023/11/09 02:24:15;;;;;;;5.97;1.98;;;18.40;52.00;;;;;;5053185;28;20278;-61
2023/11/09 02:26:42;;;;;;;7.15;2.38;;;18.40;52.00;;;;;;5053550;28;20215;-62
2023/11/09 02:29:10;;;;;;;5.53;2.17;;;18.40;51.90;;;;;;5052583;28;20192;-62
2023/11/09 02:31:37;;;;;;;7.03;2.30;;;18.40;52.00;;;;;;5053430;28;20219;-62
2023/11/09 02:34:05;;;;;;;6.50;2.08;;;18.40;51.90;;;;;;5053020;28;20553;-62
2023/11/09 02:36:32;;;;;;;5.85;2.38;;;18.40;51.90;;;;;;5052659;28;20712;-61
2023/11/09 02:38:59;;;;;;;8.10;2.22;;;18.40;51.90;;;;;;5053138;28;20630;-61
2023/11/09 02:41:28;;;;;;;9.13;2.83;;;18.40;51.90;;;;;;5053068;28;20298;-61
2023/11/09 02:43:55;;;;;;;7.57;1.90;;;18.40;51.90;;;;;;5052768;28;20274;-61
2023/11/09 02:46:21;;;;;;;7.97;2.10;;;18.40;51.90;;;;;;5053142;28;20222;-62
2023/11/09 02:48:48;;;;;;;7.00;2.05;;;18.40;52.00;;;;;;5052923;28;20286;-62
2023/11/09 02:51:15;;;;;;;7.40;2.38;;;18.40;51.90;;;;;;5052442;28;20264;-62
2023/11/09 02:53:43;;;;;;;4.65;2.08;;;18.40;51.90;;;;;;5052900;28;20188;-61
2023/11/09 02:56:10;;;;;;;4.90;2.13;;;18.40;51.90;;;;;;5052946;28;20226;-61
2023/11/09 02:58:39;;;;;;;7.00;2.08;;;18.40;51.90;;;;;;5052493;28;20221;-60
2023/11/09 03:01:06;;;;;;;8.95;2.55;;;18.30;51.80;;;;;;5052525;28;20752;-61
2023/11/09 03:03:33;;;;;;;5.28;2.33;;;18.40;51.90;;;;;;5052521;28;20230;-62
2023/11/09 03:06:00;;;;;;;8.85;2.20;;;18.30;51.80;;;;;;5052101;28;20229;-62
2023/11/09 03:08:28;;;;;;;10.18;2.58;;;18.40;51.90;;;;;;5052316;28;20543;-62
2023/11/09 03:10:55;;;;;;;8.45;2.03;;;18.40;51.90;;;;;;5052255;28;20717;-61
2023/11/09 03:13:22;;;;;;;5.97;2.10;;;18.40;51.90;;;;;;5052266;28;20200;-61
2023/11/09 03:15:51;;;;;;;5.85;2.30;;;18.40;51.90;;;;;;5052289;28;20757;-62
2023/11/09 03:18:19;;;;;;;7.82;2.50;;;18.30;51.80;;;;;;5052489;28;20214;-62
2023/11/09 03:20:46;;;;;;;8.30;2.10;;;18.30;51.80;;;;;;5051345;28;20924;-61
2023/11/09 03:23:13;;;;;;;7.90;2.22;;;18.30;51.80;;;;;;5052430;28;20199;-62
2023/11/09 03:25:40;;;;;;;6.35;2.20;;;18.30;51.80;;;;;;5052393;28;20274;-62
2023/11/09 03:28:06;;;;;;;8.57;2.40;;;18.30;51.80;;;;;;5051684;28;20564;-61
2023/11/09 03:30:35;;;;;;;6.82;2.28;;;18.30;51.80;;;;;;5052221;28;20595;-60
2023/11/09 03:33:03;;;;;;;9.10;2.38;;;18.30;51.80;;;;;;5052394;28;20191;-62
2023/11/09 03:35:31;;;;;;;6.85;2.00;;;18.30;51.80;;;;;;5051931;28;20231;-62
2023/11/09 03:37:58;;;;;;;9.95;2.50;;;18.30;51.80;;;;;;5052004;28;20275;-62
2023/11/09 03:40:25;;;;;;;8.23;2.22;;;18.30;51.80;;;;;;5052290;28;20198;-62
2023/11/09 03:42:52;;;;;;;7.85;2.20;;;18.30;51.80;;;;;;5051815;28;20215;-61
2023/11/09 03:45:19;;;;;;;6.50;2.03;;;18.30;51.80;;;;;;5052261;28;20215;-62
2023/11/09 03:47:46;;;;;;;6.32;2.13;;;18.30;51.80;;;;;;5052225;28;20298;-62
2023/11/09 03:50:15;;;;;;;7.65;2.20;;;18.30;51.80;;;;;;5051556;28;20688;-62
2023/11/09 03:52:41;;;;;;;7.10;2.15;;;18.30;51.80;;;;;;5052219;28;20227;-61
2023/11/09 03:55:11;;;;;;;7.63;1.92;;;18.30;51.80;;;;;;5051891;28;20198;-62
2023/11/09 03:57:38;;;;;;;8.00;2.45;;;18.30;51.80;;;;;;5051737;28;20215;-61
2023/11/09 04:00:08;;;;;;;9.07;2.05;;;18.30;51.80;;;;;;5052166;28;20607;-61
2023/11/09 04:02:36;;;;;;;6.80;1.90;;;18.30;51.80;;;;;;5051922;28;20222;-61
2023/11/09 04:05:03;;;;;;;5.78;2.03;;;18.30;51.80;;;;;;5051308;28;20318;-61
2023/11/09 04:07:31;;;;;;;6.82;2.13;;;18.30;51.80;;;;;;5052190;28;20219;-62
2023/11/09 04:09:58;;;;;;;7.90;2.28;;;18.30;51.80;;;;;;5051985;28;20222;-62
2023/11/09 04:12:25;;;;;;;8.95;2.00;;;18.30;51.80;;;;;;5051469;28;20229;-61
2023/11/09 04:14:52;;;;;;;8.50;2.20;;;18.30;51.80;;;;;;5051999;28;20598;-62
2023/11/09 04:17:19;;;;;;;10.07;2.38;;;18.20;51.70;;;;;;5051604;28;20215;-61
2023/11/09 04:19:46;;;;;;;8.13;2.05;;;18.20;51.70;;;;;;5051306;28;20191;-60
2023/11/09 04:22:13;;;;;;;6.38;1.80;;;18.20;51.80;;;;;;5051983;28;20251;-61
2023/11/09 04:24:41;;;;;;;9.20;2.10;;;18.20;51.80;;;;;;5051881;28;20192;-60
2023/11/09 04:27:11;;;;;;;7.65;2.45;;;18.20;51.70;;;;;;5051573;28;20302;-61
2023/11/09 04:29:38;;;;;;;7.35;1.92;;;18.20;51.80;;;;;;5051786;28;20191;-62
2023/11/09 04:32:08;;;;;;;5.93;1.75;;;18.20;51.80;;;;;;5054601;28;20219;-61
2023/11/09 04:34:36;;;;;;;5.93;2.45;;;18.20;51.80;;;;;;5055207;28;20233;-61
2023/11/09 04:37:03;;;;;;;9.40;2.20;;;18.20;51.80;;;;;;5055584;28;20219;-61
2023/11/09 04:39:31;;;;;;;7.07;1.77;;;18.20;51.80;;;;;;5055492;28;20274;-61
2023/11/09 04:42:00;;;;;;;7.57;2.25;;;18.20;51.80;;;;;;5055148;28;20285;-61
2023/11/09 04:44:28;;;;;;;6.38;1.83;;;18.20;51.80;;;;;;5055426;28;20243;-62
2023/11/09 04:46:57;;;;;;;8.25;1.88;;;18.20;51.80;;;;;;5055029;28;20693;-62
2023/11/09 04:49:24;;;;;;;7.75;1.92;;;18.20;51.90;;;;;;5054977;28;20570;-62
2023/11/09 04:51:54;;;;;;;8.57;2.10;;;18.20;51.90;;;;;;5055181;28;20238;-62
2023/11/09 04:54:24;;;;;;;5.05;1.90;;;18.20;51.90;;;;;;5055210;28;20184;-62
2023/11/09 04:58:34;;;;;;;6.80;1.90;;;18.20;51.90;;;;;;5054529;28;20689;-61
2023/11/09 05:08:08;;;;;;;7.72;2.10;;;18.20;52.00;;;;;;5049956;28;20254;-62
2023/11/09 05:10:35;;;;;;;7.55;2.08;;;18.20;52.10;;;;;;5054530;28;20219;-62
2023/11/09 05:13:02;;;;;;;5.72;1.92;;;18.20;52.10;;;;;;5054459;28;20761;-62
2023/11/09 05:15:30;;;;;;;4.57;1.60;;;18.20;52.10;;;;;;5054771;28;20270;-62
2023/11/09 05:17:57;;;;;;;5.55;1.83;;;18.20;52.10;;;;;;5054712;28;20216;-62
2023/11/09 05:20:24;;;;;;;7.32;1.85;;;18.20;52.80;;;;;;5054123;28;20191;-62
2023/11/09 05:22:51;;;;;;;6.10;1.92;;;18.20;52.10;;;;;;5054363;28;20215;-61
2023/11/09 05:25:18;;;;;;;6.85;1.88;;;18.20;52.10;;;;;;5054634;28;20276;-61
2023/11/09 05:27:46;;;;;;;5.95;2.08;;;18.20;52.10;;;;;;5054327;28;20223;-61
2023/11/09 05:30:16;;;;;;;8.15;2.30;;;18.20;52.20;;;;;;5054531;28;20285;-61
2023/11/09 05:32:45;;;;;;;6.20;1.92;;;18.10;52.10;;;;;;5054303;28;20231;-61
2023/11/09 05:35:12;;;;;;;8.00;2.42;;;18.20;52.20;;;;;;5054120;28;20195;-62
2023/11/09 05:37:39;;;;;;;5.75;2.00;;;18.20;52.20;;;;;;5054212;28;20849;-61
2023/11/09 05:40:08;;;;;;;6.65;2.03;;;18.20;52.30;;;;;;5054415;28;20199;-62
2023/11/09 05:42:36;;;;;;;5.22;1.67;;;18.20;52.40;;;;;;5053212;28;20262;-61
2023/11/09 05:45:04;;;;;;;8.48;2.00;;;18.20;52.30;;;;;;5053996;28;20184;-61
2023/11/09 05:47:31;;;;;;;6.63;1.80;;;18.20;52.20;;;;;;5053951;28;20278;-62
2023/11/09 05:50:00;;;;;;;5.70;1.80;;;18.20;52.20;;;;;;5053440;28;20194;-62
2023/11/09 05:52:27;;;;;;;4.90;1.42;;;18.30;52.30;;;;;;5054127;28;20223;-61
2023/11/09 05:54:54;;;;;;;7.47;1.75;;;18.40;52.40;;;;;;5053808;28;20661;-62
2023/11/09 05:57:21;;;;;;;5.38;2.08;;;18.40;52.40;;;;;;5053493;28;20640;-61
2023/11/09 05:59:48;;;;;;;3.90;1.30;;;18.50;52.20;;;;;;5053719;28;20663;-61
2023/11/09 06:02:15;;;;;;;8.60;1.90;;;18.60;52.10;;;;;;5054002;28;20219;-61
2023/11/09 06:04:42;;;;;;;4.10;1.42;;;18.70;52.10;;;;;;5053344;28;20224;-62
2023/11/09 06:07:11;;;;;;;4.55;1.40;;;18.80;51.90;;;;;;5053908;28;20216;-62
2023/11/09 06:09:39;;;;;;;3.28;1.23;;;18.90;51.80;;;;;;5053535;28;20653;-61
2023/11/09 06:12:08;;;;;;;5.05;1.30;;;19.00;51.70;;;;;;5053433;28;20619;-62
2023/11/09 06:14:35;;;;;;;3.70;1.45;;;19.00;51.70;;;;;;5053789;28;20192;-62
2023/11/09 06:17:02;;;;;;;6.47;1.67;;;19.10;51.60;;;;;;5053584;28;20302;-62
2023/11/09 06:19:29;;;;;;;4.75;1.50;;;19.10;51.40;;;;;;5053288;28;20198;-62
2023/11/09 06:21:57;;;;;;;4.68;1.45;;;19.20;51.40;;;;;;5053518;28;20219;-62
2023/11/09 06:24:25;;;;;;;3.42;1.30;;;19.20;51.20;;;;;;5053564;28;20216;-62
2023/11/09 06:26:52;;;;;;;5.05;1.50;;;19.30;51.30;;;;;;5052826;28;20701;-61
2023/11/09 06:29:19;;;;;;;4.30;1.70;;;19.30;51.20;;;;;;5053405;28;20270;-62
2023/11/09 06:31:47;;;;;;;6.13;1.30;;;19.40;51.20;;;;;;5053346;28;20231;-62
2023/11/09 06:34:15;;;;;;;5.15;1.20;;;19.40;51.00;;;;;;5052945;28;20188;-62
2023/11/09 06:36:44;;;;;;;5.28;1.48;;;19.50;51.00;;;;;;5052933;28;20580;-62
2023/11/09 06:39:16;;;;;;;3.17;1.38;;;19.50;50.90;;;;;;5053168;28;20194;-62
2023/11/09 06:41:45;;;;;;;3.33;1.20;;;19.50;50.90;;;;;;5052876;28;20277;-62
2023/11/09 06:44:13;;;;;;;3.90;1.20;;;19.50;50.80;;;;;;5053131;28;20223;-61
2023/11/09 06:46:40;;;;;;;5.20;1.40;;;19.60;50.70;;;;;;5053097;28;20212;-61
2023/11/09 06:49:07;;;;;;;5.32;1.40;;;19.60;50.60;;;;;;5052718;28;20195;-62
2023/11/09 06:51:34;;;;;;;4.07;1.30;;;19.70;51.30;;;;;;5052870;28;20231;-62
2023/11/09 06:54:02;;;;;;;6.55;1.60;;;19.70;50.60;;;;;;5052802;28;20207;-62
2023/11/09 06:56:32;;;;;;;4.07;1.40;;;19.70;50.60;;;;;;5052485;28;20220;-61
2023/11/09 06:59:00;;;;;;;3.40;1.33;;;19.70;50.60;;;;;;5052593;28;20654;-62
2023/11/09 07:01:27;;;;;;;4.28;1.20;;;19.70;50.60;;;;;;5052451;28;20664;-62
2023/11/09 07:03:55;;;;;;;3.72;1.40;;;19.70;50.60;;;;;;5051913;28;20574;-61
2023/11/09 07:06:22;;;;;;;4.43;1.40;;;19.80;50.70;;;;;;5052669;28;20207;-62
2023/11/09 07:08:49;;;;;;;4.57;1.40;;;19.80;50.70;;;;;;5052742;28;20600;-62
2023/11/09 07:11:16;;;;;;;3.78;1.33;;;19.80;50.60;;;;;;5051818;28;20570;-62
2023/11/09 07:13:44;;;;;;;3.83;1.05;;;19.80;50.50;;;;;;5052622;28;20269;-62
2023/11/09 07:16:12;;;;;;;4.60;1.25;;;19.90;50.70;;;;;;5052274;28;20191;-62
2023/11/09 07:18:40;;;;;;;4.00;1.20;;;19.90;50.60;;;;;;5052155;28;20271;-62
2023/11/09 07:21:08;;;;;;;3.63;1.27;;;19.90;50.60;;;;;;5052202;28;20565;-62
2023/11/09 07:23:35;;;;;;;2.88;1.30;;;19.90;50.50;;;;;;5052507;28;20183;-62
2023/11/09 07:26:02;;;;;;;3.22;1.02;;;19.90;50.50;;;;;;5052165;28;20211;-63
2023/11/09 07:28:31;;;;;;;7.35;1.38;;;20.00;50.40;;;;;;5052060;28;20273;-63
2023/11/09 07:31:01;;;;;;;3.90;1.00;;;20.00;50.30;;;;;;5052261;28;20216;-62
2023/11/09 07:33:29;;;;;;;2.20;1.23;;;20.00;50.30;;;;;;5052010;28;20237;-61
2023/11/09 07:35:59;;;;;;;3.83;1.38;;;20.00;50.20;;;;;;5052311;28;20695;-63
2023/11/09 07:38:29;;;;;;;4.15;1.52;;;20.00;50.10;;;;;;5057403;28;20809;-63
2023/11/09 07:40:56;;;;;;;5.13;1.75;;;20.00;50.20;;;;;;5053949;28;20227;-61
2023/11/09 07:43:25;;;;;;;5.40;1.50;;;20.00;50.20;;;;;;5049865;28;20253;-63
2023/11/09 07:45:53;;;;;;;3.67;1.27;;;20.00;50.20;;;;;;5061523;28;20187;-63
2023/11/09 07:48:21;;;;;;;3.83;1.42;;;20.00;50.10;;;;;;5070318;28;20214;-63
2023/11/09 07:51:01;;;;;;;5.88;1.50;;;20.00;50.20;;;;;;5070392;28;20202;-63
2023/11/09 07:53:28;;;;;;;4.13;1.73;;;20.10;50.20;;;;;;5070509;28;20217;-63
2023/11/09 07:55:57;;;;;;;8.05;1.52;;;20.10;50.10;;;;;;5070361;28;20297;-62
2023/11/09 07:58:25;;;;;;;6.70;1.40;;;20.00;49.90;;;;;;5062657;28;20214;-64
2023/11/09 08:00:52;;;;;;;15.57;1.80;;;20.00;50.10;;;;;;5054965;28;20199;-62
2023/11/09 08:03:21;;;;;;;15.85;1.58;;;20.00;50.20;;;;;;5064220;28;20226;-64
2023/11/09 08:05:48;;;;;;;8.63;1.73;;;20.00;50.30;;;;;;5026705;28;20638;-61
2023/11/09 08:08:35;;;;;;;15.15;1.58;;;20.00;50.30;;;;;;5042279;28;20766;-61
2023/11/09 08:11:08;;;;;;;8.40;1.60;;;20.10;50.50;;;;;;5070623;28;20233;-60
2023/11/09 08:13:41;;;;;;;7.82;1.20;;;20.10;50.70;;;;;;5065552;28;20276;-59
2023/11/09 08:16:16;;;;;;;7.15;1.60;;;20.10;50.80;;;;;;5061925;28;20191;-62
2023/11/09 08:18:50;;;;;;;6.22;1.33;;;20.20;50.70;;;;;;5061185;28;20243;-61
2023/11/09 08:21:20;;;;;;;8.40;1.60;;;20.20;50.80;;;;;;5019592;28;20716;-59
2023/11/09 08:23:51;;;;;;;10.35;1.40;;;20.30;50.90;;;;;;5071798;28;20219;-62
2023/11/09 08:26:27;;;;;;;10.23;1.70;;;20.30;50.70;;;;;;5062063;28;20195;-63
2023/11/09 08:29:04;;;;;;;31.67;1.45;;;20.30;50.70;;;;;;5060562;28;20602;-61
2023/11/09 08:31:49;;;;;;;6.50;1.30;;;20.30;50.60;;;;;;5016573;28;20852;-62
2023/11/09 08:34:29;;;;;;;4.13;1.30;;;20.30;50.70;;;;;;5010898;28;20251;-62
2023/11/09 08:36:58;;;;;;;5.45;1.48;;;20.40;50.70;;;;;;5019291;28;20587;-64
2023/11/09 08:40:16;;;;;;;5.40;1.58;;;20.40;50.60;;;;;;5042676;28;20669;-60
2023/11/09 08:42:49;;;;;;;3.85;1.52;;;20.40;50.50;;;;;;5062015;28;20699;-62
2023/11/09 08:45:24;;;;;;;7.50;1.27;;;20.50;50.70;;;;;;5059525;28;20256;-62
2023/11/09 08:47:54;;;;;;;3.95;1.27;;;20.50;50.50;;;;;;5057731;28;20222;-62
2023/11/09 08:50:24;;;;;;;7.90;1.65;;;20.50;50.40;;;;;;5024807;28;21968;-60
2023/11/09 08:52:53;;;;;;;5.55;1.10;;;20.50;51.00;;;;;;5020533;28;20230;-63
2023/11/09 08:55:23;;;;;;;4.80;1.48;;;20.50;50.90;;;;;;5054434;28;20255;-63
2023/11/09 08:57:54;;;;;;;4.07;1.30;;;20.50;50.20;;;;;;5045639;28;20710;-63
2023/11/09 09:00:28;;;;;;;5.82;1.10;;;20.60;50.40;;;;;;5058369;28;20198;-59
2023/11/09 09:02:56;;;;;;;7.78;1.50;;;20.60;50.30;;;;;;5023085;28;20214;-62
2023/11/09 09:05:30;;;;;;;6.40;1.25;;;20.60;50.20;;;;;;5057393;28;21597;-63
2023/11/09 09:07:59;;;;;;;6.60;1.52;;;20.60;50.20;;;;;;5041788;28;20268;-63
2023/11/09 09:10:35;;;;;;;4.75;1.23;;;20.50;50.10;;;;;;5064860;28;20210;-65
2023/11/09 09:13:04;;;;;;;4.80;1.38;;;20.60;50.20;;;;;;5060379;28;20230;-64
2023/11/09 09:15:39;;;;;;;6.18;1.10;;;20.60;50.00;;;;;;5063881;28;20244;-60
2023/11/09 09:18:25;;;;;;;5.75;1.30;;;20.60;49.90;;;;;;5061660;28;20217;-63
2023/11/09 09:20:53;;;;;;;4.05;1.20;;;20.60;49.80;;;;;;5064870;28;20274;-61
2023/11/09 09:23:37;;;;;;;6.18;1.30;;;20.60;49.80;;;;;;5063544;28;20219;-61
2023/11/09 09:26:07;;;;;;;3.70;0.95;;;20.60;49.90;;;;;;4981360;28;20234;-62
2023/11/09 09:28:47;;;;;;;4.65;1.25;;;20.70;49.80;;;;;;5057859;28;20283;-60
2023/11/09 09:31:18;;;;;;;9.30;1.38;;;20.70;49.80;;;;;;5064518;28;20194;-62
2023/11/09 09:34:02;;;;;;;5.88;1.20;;;20.70;49.70;;;;;;5014554;28;20224;-56
2023/11/09 09:36:33;;;;;;;5.03;1.23;;;20.70;49.60;;;;;;5020641;28;20200;-59
2023/11/09 09:39:03;;;;;;;2.28;1.17;;;20.80;49.60;;;;;;5019989;28;20216;-62
2023/11/09 09:41:42;;;;;;;2.50;1.27;;;20.80;49.50;;;;;;5000886;28;20205;-62
2023/11/09 09:44:14;;;;;;;3.83;1.10;;;20.90;49.50;;;;;;5017533;28;20640;-61
2023/11/09 09:46:45;;;;;;;4.53;1.15;;;20.90;49.30;;;;;;4988536;28;20196;-61
2023/11/09 09:49:17;;;;;;;3.65;1.13;;;20.90;49.30;;;;;;5026747;28;20310;-61
2023/11/09 09:51:45;;;;;;;5.93;1.30;;;21.00;49.30;;;;;;5020832;28;20666;-64
2023/11/09 09:57:03;;;;;;;6.97;1.20;;;21.10;49.40;;;;;;5014683;28;20807;-61
2023/11/09 09:59:32;;;;;;;4.95;1.17;;;21.10;49.30;;;;;;5058164;28;20665;-62
2023/11/09 10:02:17;;;;;;;3.20;1.25;;;21.20;49.40;;;;;;5057751;28;20206;-66
2023/11/09 10:04:46;;;;;;;8.57;0.95;;;21.20;49.20;;;;;;5061990;28;20279;-64
2023/11/09 10:07:13;;;;;;;3.88;1.25;;;21.30;49.30;;;;;;5059517;28;20207;-64
2023/11/09 10:09:44;;;;;;;4.00;1.17;;;21.40;49.30;;;;;;5026360;28;20241;-62
2023/11/09 10:12:38;;;;;;;5.20;1.10;;;21.40;49.30;;;;;;5062642;28;20226;-63
2023/11/09 10:15:15;;;;;;;3.03;1.15;;;21.50;49.20;;;;;;5062158;28;20214;-61
2023/11/09 10:17:48;;;;;;;3.75;1.20;;;21.50;49.10;;;;;;5053846;28;20653;-60
2023/11/09 10:20:20;;;;;;;5.53;1.40;;;21.50;49.20;;;;;;5050840;28;20310;-63
2023/11/09 10:22:51;;;;;;;4.60;1.17;;;21.50;49.30;;;;;;5058191;28;20207;-60
2023/11/09 10:25:48;;;;;;;8.60;1.75;;;21.50;49.30;;;;;;5059327;28;20227;-62
2023/11/09 10:28:36;;;;;;;5.88;1.30;;;21.40;49.20;;;;;;5014845;28;20305;-63
2023/11/09 10:31:35;;;;;;;10.55;1.40;;;21.40;49.30;;;;;;5064928;28;21300;-62
2023/11/09 10:34:11;;;;;;;4.07;1.23;;;21.40;49.10;;;;;;5067985;28;20222;-61
2023/11/09 10:39:50;;;;;;;4.45;1.10;;;21.40;49.30;;;;;;5015616;28;20233;-63
2023/11/09 10:42:18;;;;;;;2.67;1.23;;;21.40;49.20;;;;;;5062035;28;20666;-62
2023/11/09 10:44:47;;;;;;;6.13;1.13;;;21.40;49.10;;;;;;5066357;28;20218;-62
2023/11/09 10:47:14;;;;;;;4.13;1.30;;;21.40;49.00;;;;;;5070270;28;20195;-63
2023/11/09 10:49:44;;;;;;;5.82;1.52;;;21.40;48.90;;;;;;5070895;28;20641;-63
2023/11/09 10:52:14;;;;;;;4.68;1.88;;;21.40;48.80;;;;;;5069083;28;20222;-63
2023/11/09 10:55:12;;;;;;;6.88;1.42;;;21.40;48.80;;;;;;5071099;28;20297;-63
2023/11/09 10:57:43;;;;;;;5.85;1.70;;;21.40;48.70;;;;;;5066606;28;20211;-63
2023/11/09 11:00:25;;;;;;;3.05;1.15;;;21.40;48.80;;;;;;5068440;28;20691;-63
2023/11/09 11:02:54;;;;;;;5.32;1.48;;;21.40;48.80;;;;;;5070737;28;20186;-63
2023/11/09 11:05:24;;;;;;;4.45;1.42;;;21.40;48.60;;;;;;5070426;28;20317;-62
2023/11/09 11:07:54;;;;;;;4.78;1.25;;;21.40;48.60;;;;;;5070862;28;20557;-61
2023/11/09 11:10:22;;;;;;;7.15;1.60;;;21.40;48.50;;;;;;5071403;28;20271;-63
2023/11/09 11:12:50;;;;;;;5.88;1.17;;;21.40;48.50;;;;;;5070263;28;20230;-62
2023/11/09 11:15:27;;;;;;;7.43;1.50;;;21.40;48.30;;;;;;5071209;28;20219;-63
2023/11/09 11:18:03;;;;;;;5.70;1.20;;;21.40;48.20;;;;;;5070909;28;20270;-63
2023/11/09 11:20:45;;;;;;;6.30;1.20;;;21.40;48.10;;;;;;5071838;28;20210;-63
2023/11/09 11:23:29;;;;;;;5.68;1.40;;;21.30;48.10;;;;;;5071026;28;20292;-63
2023/11/09 11:26:04;;;;;;;4.75;1.40;;;21.30;48.20;;;;;;5070853;28;20306;-63
2023/11/09 11:28:32;;;;;;;4.65;1.33;;;21.30;48.20;;;;;;5065514;28;21098;-63
2023/11/09 11:31:17;;;;;;;;;;;;;;;;;;;;;
2023/11/09 11:33:47;;;;;;;7.85;1.30;;;21.20;48.10;;;;;;5063022;28;20214;-60
2023/11/09 11:36:33;;;;;;;5.97;1.83;;;21.20;48.80;;;;;;5030389;28;20283;-60
2023/11/09 11:39:12;;;;;;;6.57;1.60;;;21.10;48.20;;;;;;5065487;28;20202;-61
2023/11/09 11:41:43;;;;;;;8.70;1.75;;;21.10;48.10;;;;;;5063006;28;20196;-61
2023/11/09 11:44:12;;;;;;;3.45;1.33;;;21.10;48.00;;;;;;5068020;28;20211;-61
2023/11/09 11:46:42;;;;;;;9.43;1.73;;;21.10;48.00;;;;;;5069370;28;20197;-61
2023/11/09 11:49:16;;;;;;;6.85;1.45;;;21.10;48.10;;;;;;5068919;28;20191;-59
2023/11/09 11:51:49;;;;;;;8.25;1.70;;;21.10;48.00;;;;;;5069293;28;20251;-60
2023/11/09 11:54:23;;;;;;;5.50;1.35;;;21.10;48.10;;;;;;5069384;28;20227;-60
2023/11/09 11:56:53;;;;;;;4.68;1.63;;;21.10;47.90;;;;;;5069764;28;20269;-61
2023/11/09 11:59:25;;;;;;;4.72;1.50;;;21.10;47.90;;;;;;5069125;28;20265;-61
2023/11/09 12:01:55;;;;;;;4.72;1.40;;;21.10;47.90;;;;;;5069462;28;20191;-60
2023/11/09 12:04:23;;;;;;;7.07;1.77;;;21.10;47.70;;;;;;5035387;28;20794;-61
2023/11/09 12:06:55;;;;;;;5.28;1.73;;;21.10;47.70;;;;;;5049687;28;20199;-63
2023/11/09 12:09:24;;;;;;;8.13;1.77;;;21.10;47.60;;;;;;5067468;28;20231;-63
2023/11/09 12:11:55;;;;;;;7.60;1.70;;;21.10;47.60;;;;;;5067485;28;20211;-63
2023/11/09 12:14:25;;;;;;;7.00;1.70;;;21.10;47.70;;;;;;5066385;28;20238;-63
2023/11/09 12:17:02;;;;;;;6.97;2.03;;;21.10;47.50;;;;;;5065299;28;20221;-60
2023/11/09 12:19:33;;;;;;;4.53;1.40;;;21.20;47.40;;;;;;5066612;28;20719;-61
2023/11/09 12:22:39;;;;;;;9.07;1.83;;;21.10;47.40;;;;;;5066945;28;20195;-61
2023/11/09 12:25:11;;;;;;;4.22;1.27;;;21.10;47.10;;;;;;4996105;28;20221;-60
2023/11/09 12:27:41;;;;;;;4.38;1.77;;;21.10;47.10;;;;;;5004064;28;20201;-61
2023/11/09 12:30:25;;;;;;;4.10;1.73;;;21.10;47.20;;;;;;5004138;28;20225;-59
2023/11/09 12:33:01;;;;;;;3.70;1.60;;;21.10;47.20;;;;;;5004330;28;20656;-60
2023/11/09 12:35:34;;;;;;;4.93;1.70;;;21.10;47.20;;;;;;5004517;28;20225;-58
2023/11/09 12:38:04;;;;;;;5.03;1.80;;;21.10;47.10;;;;;;5004347;28;20720;-61
2023/11/09 12:40:41;;;;;;;4.85;1.80;;;21.10;47.70;;;;;;5004605;28;20237;-60
2023/11/09 12:43:14;;;;;;;6.00;1.75;;;21.20;47.10;;;;;;5004854;28;20240;-59
2023/11/09 12:45:46;;;;;;;5.47;1.80;;;21.20;47.20;;;;;;5004474;28;20737;-60
2023/11/09 12:48:25;;;;;;;5.90;1.80;;;21.20;47.20;;;;;;5004225;28;20299;-60
2023/11/09 12:51:25;;;;;;;5.80;2.13;;;21.20;47.10;;;;;;4987578;28;20247;-61
2023/11/09 12:56:35;;;;;;;4.85;1.77;;;21.10;47.10;;;;;;4984534;28;20212;-59
2023/11/09 13:02:02;;;;;;;5.45;1.63;;;21.10;47.10;;;;;;5025641;28;20206;-60
2023/11/09 13:04:41;;;;;;;5.93;1.60;;;21.10;47.10;;;;;;5047195;28;20242;-60
2023/11/09 13:07:24;;;;;;;9.45;2.58;;;21.10;47.10;;;;;;5045434;28;20203;-62
2023/11/09 13:10:18;;;;;;;13.25;2.30;;;21.20;47.20;;;;;;5056272;28;20215;-60
2023/11/09 13:12:47;;;;;;;12.05;2.20;;;21.20;47.10;;;;;;5054651;28;20255;-57
2023/11/09 13:15:34;;;;;;;8.40;2.35;;;21.20;47.20;;;;;;5055911;28;20805;-60
2023/11/09 13:18:07;;;;;;;11.68;2.30;;;21.20;47.20;;;;;;5011169;28;21813;-60
2023/11/09 13:20:37;;;;;;;14.95;2.40;;;21.20;47.10;;;;;;5059562;28;20222;-55
2023/11/09 13:23:07;;;;;;;7.38;2.00;;;21.20;47.20;;;;;;5064108;28;20568;-56
2023/11/09 13:25:43;;;;;;;13.75;1.98;;;21.20;47.20;;;;;;5005480;28;21184;-61